sensor_id;sensor_type;location;lat;lon;timestamp;pressure;altitude;pressure_sealevel;temperature;humidity
57859;BME280;49153;45.568;11.894;2022-07-15T00:01:33;101204.47;;;24.20;57.26
57859;BME280;49153;45.568;11.894;2022-07-15T00:03:59;101206.44;;;24.26;57.57
57859;BME280;49153;45.568;11.894;2022-07-15T00:06:29;101203.53;;;24.27;57.43
57859;BME280;49153;45.568;11.894;2022-07-15T00:08:55;101199.63;;;24.15;57.12
57859;BME280;49153;45.568;11.894;2022-07-15T00:11:22;101211.22;;;24.01;57.79
57859;BME280;49153;45.568;11.894;2022-07-15T00:13:48;101190.59;;;23.93;57.75
57859;BME280;49153;45.568;11.894;2022-07-15T00:16:14;101184.19;;;23.94;58.06
57859;BME280;49153;45.568;11.894;2022-07-15T00:18:41;101186.94;;;24.01;58.21
57859;BME280;49153;45.568;11.894;2022-07-15T00:21:07;101186.09;;;23.86;58.10
57859;BME280;49153;45.568;11.894;2022-07-15T00:23:32;101179.25;;;23.83;58.54
57859;BME280;49153;45.568;11.894;2022-07-15T00:25:58;101193.34;;;23.85;58.60
57859;BME280;49153;45.568;11.894;2022-07-15T00:28:25;101186.56;;;23.75;58.70
57859;BME280;49153;45.568;11.894;2022-07-15T00:30:52;101186.34;;;23.47;59.01
57859;BME280;49153;45.568;11.894;2022-07-15T00:33:20;101187.63;;;23.28;59.58
57859;BME280;49153;45.568;11.894;2022-07-15T00:35:59;101182.31;;;23.20;59.95
57859;BME280;49153;45.568;11.894;2022-07-15T00:38:45;101179.06;;;23.25;59.98
57859;BME280;49153;45.568;11.894;2022-07-15T00:41:12;101179.41;;;23.22;60.23
57859;BME280;49153;45.568;11.894;2022-07-15T00:43:39;101169.88;;;23.19;60.57
57859;BME280;49153;45.568;11.894;2022-07-15T00:46:08;101167.47;;;23.24;60.17
57859;BME280;49153;45.568;11.894;2022-07-15T00:48:39;101164.94;;;23.23;60.40
57859;BME280;49153;45.568;11.894;2022-07-15T00:51:05;101161.13;;;23.17;60.40
57859;BME280;49153;45.568;11.894;2022-07-15T00:53:33;101159.34;;;23.09;60.37
57859;BME280;49153;45.568;11.894;2022-07-15T00:56:01;101160.28;;;23.16;60.49
57859;BME280;49153;45.568;11.894;2022-07-15T00:58:28;101160.78;;;23.20;60.78
57859;BME280;49153;45.568;11.894;2022-07-15T01:00:54;101151.06;;;23.11;60.57
57859;BME280;49153;45.568;11.894;2022-07-15T01:03:25;101153.88;;;23.17;60.89
57859;BME280;49153;45.568;11.894;2022-07-15T01:06:15;101164.34;;;23.12;60.70
57859;BME280;49153;45.568;11.894;2022-07-15T01:08:56;101162.09;;;23.01;60.95
57859;BME280;49153;45.568;11.894;2022-07-15T01:11:37;101157.66;;;23.08;61.20
57859;BME280;49153;45.568;11.894;2022-07-15T01:14:28;101157.28;;;23.11;61.10
57859;BME280;49153;45.568;11.894;2022-07-15T01:16:54;101153.28;;;23.07;61.14
57859;BME280;49153;45.568;11.894;2022-07-15T01:19:19;101148.94;;;23.06;61.14
57859;BME280;49153;45.568;11.894;2022-07-15T01:21:46;101143.44;;;23.00;61.06
57859;BME280;49153;45.568;11.894;2022-07-15T01:24:15;101152.16;;;23.02;61.19
57859;BME280;49153;45.568;11.894;2022-07-15T01:26:42;101133.81;;;22.83;61.31
57859;BME280;49153;45.568;11.894;2022-07-15T01:29:07;101138.38;;;22.74;61.87
57859;BME280;49153;45.568;11.894;2022-07-15T01:31:39;101136.56;;;22.66;61.68
57859;BME280;49153;45.568;11.894;2022-07-15T01:34:07;101122.69;;;22.55;61.55
57859;BME280;49153;45.568;11.894;2022-07-15T01:36:33;101119.69;;;22.50;61.90
57859;BME280;49153;45.568;11.894;2022-07-15T01:39:01;101127.75;;;22.50;62.18
57859;BME280;49153;45.568;11.894;2022-07-15T01:41:49;101116.00;;;22.51;62.10
57859;BME280;49153;45.568;11.894;2022-07-15T01:47:32;101097.50;;;22.25;62.25
57859;BME280;49153;45.568;11.894;2022-07-15T01:50:31;101104.63;;;22.41;62.80
57859;BME280;49153;45.568;11.894;2022-07-15T01:53:25;101117.31;;;22.55;62.57
57859;BME280;49153;45.568;11.894;2022-07-15T01:56:00;101096.16;;;22.52;62.47
57859;BME280;49153;45.568;11.894;2022-07-15T01:58:28;101087.78;;;22.47;62.37
57859;BME280;49153;45.568;11.894;2022-07-15T02:01:22;101105.56;;;22.48;62.05
57859;BME280;49153;45.568;11.894;2022-07-15T02:03:47;101100.25;;;22.40;62.07
57859;BME280;49153;45.568;11.894;2022-07-15T02:06:21;101087.22;;;22.28;62.48
57859;BME280;49153;45.568;11.894;2022-07-15T02:08:46;101094.59;;;22.35;62.84
57859;BME280;49153;45.568;11.894;2022-07-15T02:11:11;101087.88;;;22.30;63.15
57859;BME280;49153;45.568;11.894;2022-07-15T02:13:38;101094.03;;;22.39;62.66
57859;BME280;49153;45.568;11.894;2022-07-15T02:16:04;101101.75;;;22.42;62.68
57859;BME280;49153;45.568;11.894;2022-07-15T02:18:30;101090.56;;;22.30;62.63
57859;BME280;49153;45.568;11.894;2022-07-15T02:20:56;101094.81;;;22.25;62.85
57859;BME280;49153;45.568;11.894;2022-07-15T02:23:23;101097.19;;;22.20;62.88
57859;BME280;49153;45.568;11.894;2022-07-15T02:25:49;101091.66;;;22.13;63.14
57859;BME280;49153;45.568;11.894;2022-07-15T02:28:15;101090.13;;;22.19;63.47
57859;BME280;49153;45.568;11.894;2022-07-15T02:30:42;101080.22;;;22.19;62.92
57859;BME280;49153;45.568;11.894;2022-07-15T02:33:09;101087.91;;;22.22;63.04
57859;BME280;49153;45.568;11.894;2022-07-15T02:35:36;101083.53;;;22.21;62.78
57859;BME280;49153;45.568;11.894;2022-07-15T02:38:02;101073.16;;;22.18;63.16
57859;BME280;49153;45.568;11.894;2022-07-15T02:40:28;101077.88;;;22.16;62.83
57859;BME280;49153;45.568;11.894;2022-07-15T02:42:58;101069.63;;;22.18;63.38
57859;BME280;49153;45.568;11.894;2022-07-15T02:45:26;101061.94;;;22.15;63.25
57859;BME280;49153;45.568;11.894;2022-07-15T02:47:52;101072.81;;;22.21;63.50
57859;BME280;49153;45.568;11.894;2022-07-15T02:50:19;101066.72;;;22.27;63.47
57859;BME280;49153;45.568;11.894;2022-07-15T02:52:45;101077.84;;;22.24;63.59
57859;BME280;49153;45.568;11.894;2022-07-15T02:55:11;101081.53;;;22.23;63.62
57859;BME280;49153;45.568;11.894;2022-07-15T02:57:38;101072.69;;;22.15;63.16
57859;BME280;49153;45.568;11.894;2022-07-15T03:00:05;101079.06;;;22.14;63.56
57859;BME280;49153;45.568;11.894;2022-07-15T03:02:31;101081.91;;;22.20;63.84
57859;BME280;49153;45.568;11.894;2022-07-15T03:05:01;101074.16;;;22.17;63.67
57859;BME280;49153;45.568;11.894;2022-07-15T03:07:27;101075.31;;;22.23;64.10
57859;BME280;49153;45.568;11.894;2022-07-15T03:09:56;101085.22;;;22.22;63.83
57859;BME280;49153;45.568;11.894;2022-07-15T03:12:21;101069.47;;;22.19;64.13
57859;BME280;49153;45.568;11.894;2022-07-15T03:14:47;101085.22;;;22.22;63.98
57859;BME280;49153;45.568;11.894;2022-07-15T03:17:13;101088.28;;;22.19;63.62
57859;BME280;49153;45.568;11.894;2022-07-15T03:19:38;101087.97;;;22.14;64.07
57859;BME280;49153;45.568;11.894;2022-07-15T03:22:06;101082.75;;;22.13;64.36
57859;BME280;49153;45.568;11.894;2022-07-15T03:24:53;101064.66;;;22.07;64.02
57859;BME280;49153;45.568;11.894;2022-07-15T03:27:19;101059.13;;;22.00;64.24
57859;BME280;49153;45.568;11.894;2022-07-15T03:29:45;101083.59;;;22.13;64.16
57859;BME280;49153;45.568;11.894;2022-07-15T03:32:14;101091.81;;;22.20;64.01
57859;BME280;49153;45.568;11.894;2022-07-15T03:34:41;101084.38;;;22.22;63.82
57859;BME280;49153;45.568;11.894;2022-07-15T03:37:08;101098.28;;;22.33;64.08
57859;BME280;49153;45.568;11.894;2022-07-15T03:39:35;101101.44;;;22.37;63.68
57859;BME280;49153;45.568;11.894;2022-07-15T03:42:01;101088.72;;;22.31;63.49
57859;BME280;49153;45.568;11.894;2022-07-15T03:44:27;101112.88;;;22.39;63.66
57859;BME280;49153;45.568;11.894;2022-07-15T03:46:53;101091.91;;;22.26;63.63
57859;BME280;49153;45.568;11.894;2022-07-15T03:49:20;101110.00;;;22.41;63.65
57859;BME280;49153;45.568;11.894;2022-07-15T03:51:47;101113.03;;;22.38;63.60
57859;BME280;49153;45.568;11.894;2022-07-15T03:56:49;101099.13;;;22.34;63.63
57859;BME280;49153;45.568;11.894;2022-07-15T03:59:19;101104.63;;;22.41;63.09
57859;BME280;49153;45.568;11.894;2022-07-15T04:02:12;101103.28;;;22.37;63.34
57859;BME280;49153;45.568;11.894;2022-07-15T04:04:39;101105.34;;;22.35;63.37
57859;BME280;49153;45.568;11.894;2022-07-15T04:07:04;101109.03;;;22.33;63.82
57859;BME280;49153;45.568;11.894;2022-07-15T04:09:34;101106.88;;;22.29;64.15
57859;BME280;49153;45.568;11.894;2022-07-15T04:12:01;101113.09;;;22.29;64.11
57859;BME280;49153;45.568;11.894;2022-07-15T04:14:59;101108.34;;;22.31;64.34
57859;BME280;49153;45.568;11.894;2022-07-15T04:17:27;101110.94;;;22.25;63.94
57859;BME280;49153;45.568;11.894;2022-07-15T04:19:53;101108.78;;;22.20;64.02
57859;BME280;49153;45.568;11.894;2022-07-15T04:22:21;101099.19;;;22.18;64.68
57859;BME280;49153;45.568;11.894;2022-07-15T04:25:07;101116.78;;;22.28;64.50
57859;BME280;49153;45.568;11.894;2022-07-15T04:27:40;101112.41;;;22.27;64.31
57859;BME280;49153;45.568;11.894;2022-07-15T04:30:16;101113.94;;;22.30;64.72
57859;BME280;49153;45.568;11.894;2022-07-15T04:33:15;101113.41;;;22.35;64.75
57859;BME280;49153;45.568;11.894;2022-07-15T04:36:01;101120.16;;;22.30;64.42
57859;BME280;49153;45.568;11.894;2022-07-15T04:38:27;101119.31;;;22.30;64.57
57859;BME280;49153;45.568;11.894;2022-07-15T04:40:54;101118.94;;;22.33;64.98
57859;BME280;49153;45.568;11.894;2022-07-15T04:44:00;101126.38;;;22.31;64.58
57859;BME280;49153;45.568;11.894;2022-07-15T04:46:51;101107.09;;;22.19;64.42
57859;BME280;49153;45.568;11.894;2022-07-15T04:49:24;101118.19;;;22.16;64.41
57859;BME280;49153;45.568;11.894;2022-07-15T04:52:31;101100.13;;;22.02;65.25
57859;BME280;49153;45.568;11.894;2022-07-15T04:55:21;101130.28;;;22.12;65.01
57859;BME280;49153;45.568;11.894;2022-07-15T04:58:19;101122.91;;;22.14;65.22
57859;BME280;49153;45.568;11.894;2022-07-15T05:00:52;101126.91;;;22.18;64.93
57859;BME280;49153;45.568;11.894;2022-07-15T05:03:21;101125.53;;;22.22;65.39
57859;BME280;49153;45.568;11.894;2022-07-15T05:06:31;101127.22;;;22.23;65.26
57859;BME280;49153;45.568;11.894;2022-07-15T05:09:28;101122.16;;;22.28;65.48
57859;BME280;49153;45.568;11.894;2022-07-15T05:12:17;101126.47;;;22.38;65.10
57859;BME280;49153;45.568;11.894;2022-07-15T05:15:54;101131.47;;;22.49;65.05
57859;BME280;49153;45.568;11.894;2022-07-15T05:18:19;101115.31;;;22.49;65.48
57859;BME280;49153;45.568;11.894;2022-07-15T05:20:45;101127.69;;;22.58;64.74
57859;BME280;49153;45.568;11.894;2022-07-15T05:23:10;101130.53;;;22.64;64.87
57859;BME280;49153;45.568;11.894;2022-07-15T05:25:37;101132.88;;;22.67;64.89
57859;BME280;49153;45.568;11.894;2022-07-15T05:28:09;101130.16;;;22.76;65.41
57859;BME280;49153;45.568;11.894;2022-07-15T05:30:34;101140.69;;;22.85;65.11
57859;BME280;49153;45.568;11.894;2022-07-15T05:33:02;101120.81;;;22.86;65.11
57859;BME280;49153;45.568;11.894;2022-07-15T05:35:27;101139.72;;;23.01;64.73
57859;BME280;49153;45.568;11.894;2022-07-15T05:37:53;101145.22;;;23.07;64.75
57859;BME280;49153;45.568;11.894;2022-07-15T05:40:18;101134.13;;;23.10;64.72
57859;BME280;49153;45.568;11.894;2022-07-15T05:42:45;101135.53;;;23.21;64.83
57859;BME280;49153;45.568;11.894;2022-07-15T05:45:12;101144.38;;;23.30;64.53
57859;BME280;49153;45.568;11.894;2022-07-15T05:47:37;101141.25;;;23.41;64.65
57859;BME280;49153;45.568;11.894;2022-07-15T05:50:04;101138.88;;;23.46;64.50
57859;BME280;49153;45.568;11.894;2022-07-15T05:52:29;101134.06;;;23.56;64.60
57859;BME280;49153;45.568;11.894;2022-07-15T05:54:55;101137.59;;;23.71;64.55
57859;BME280;49153;45.568;11.894;2022-07-15T05:57:21;101146.16;;;23.89;64.35
57859;BME280;49153;45.568;11.894;2022-07-15T05:59:47;101141.34;;;23.99;63.92
57859;BME280;49153;45.568;11.894;2022-07-15T06:02:12;101124.78;;;24.03;64.00
57859;BME280;49153;45.568;11.894;2022-07-15T06:04:40;101117.13;;;24.06;63.63
57859;BME280;49153;45.568;11.894;2022-07-15T06:07:06;101137.16;;;24.26;63.79
57859;BME280;49153;45.568;11.894;2022-07-15T06:09:31;101135.00;;;24.36;63.66
57859;BME280;49153;45.568;11.894;2022-07-15T06:11:57;101128.63;;;24.44;63.25
57859;BME280;49153;45.568;11.894;2022-07-15T06:14:24;101127.03;;;24.50;62.80
57859;BME280;49153;45.568;11.894;2022-07-15T06:16:50;101134.06;;;24.65;62.92
57859;BME280;49153;45.568;11.894;2022-07-15T06:19:17;101137.94;;;24.77;62.85
57859;BME280;49153;45.568;11.894;2022-07-15T06:21:43;101139.16;;;24.90;62.93
57859;BME280;49153;45.568;11.894;2022-07-15T06:24:09;101134.25;;;25.00;62.96
57859;BME280;49153;45.568;11.894;2022-07-15T06:26:34;101147.69;;;25.14;62.74
57859;BME280;49153;45.568;11.894;2022-07-15T06:29:00;101144.91;;;25.29;62.40
57859;BME280;49153;45.568;11.894;2022-07-15T06:31:26;101148.75;;;25.41;62.38
57859;BME280;49153;45.568;11.894;2022-07-15T06:33:51;101151.75;;;25.53;62.47
57859;BME280;49153;45.568;11.894;2022-07-15T06:36:17;101155.22;;;25.68;62.32
57859;BME280;49153;45.568;11.894;2022-07-15T06:38:44;101156.53;;;25.79;62.03
57859;BME280;49153;45.568;11.894;2022-07-15T06:41:11;101154.31;;;25.89;62.37
57859;BME280;49153;45.568;11.894;2022-07-15T06:43:39;101153.34;;;26.03;62.14
57859;BME280;49153;45.568;11.894;2022-07-15T06:46:05;101153.63;;;26.15;62.13
57859;BME280;49153;45.568;11.894;2022-07-15T06:48:30;101134.97;;;26.26;62.24
57859;BME280;49153;45.568;11.894;2022-07-15T06:50:58;101151.91;;;26.41;61.99
57859;BME280;49153;45.568;11.894;2022-07-15T06:53:23;101141.94;;;26.48;61.53
57859;BME280;49153;45.568;11.894;2022-07-15T06:55:54;101133.63;;;26.57;61.71
57859;BME280;49153;45.568;11.894;2022-07-15T06:58:46;101148.25;;;26.69;61.17
57859;BME280;49153;45.568;11.894;2022-07-15T07:01:12;101138.25;;;26.69;61.44
57859;BME280;49153;45.568;11.894;2022-07-15T07:03:38;101139.53;;;26.80;61.73
57859;BME280;49153;45.568;11.894;2022-07-15T07:06:03;101151.25;;;27.00;62.02
57859;BME280;49153;45.568;11.894;2022-07-15T07:08:32;101143.75;;;27.09;62.12
57859;BME280;49153;45.568;11.894;2022-07-15T07:10:57;101148.56;;;27.26;61.83
57859;BME280;49153;45.568;11.894;2022-07-15T07:13:33;101150.44;;;27.33;61.44
57859;BME280;49153;45.568;11.894;2022-07-15T07:15:59;101142.94;;;27.35;62.05
57859;BME280;49153;45.568;11.894;2022-07-15T07:18:37;101144.41;;;27.44;62.31
57859;BME280;49153;45.568;11.894;2022-07-15T07:21:13;101142.53;;;27.51;62.77
57859;BME280;49153;45.568;11.894;2022-07-15T07:23:46;101144.59;;;27.68;63.11
57859;BME280;49153;45.568;11.894;2022-07-15T07:26:13;101150.81;;;27.82;62.24
57859;BME280;49153;45.568;11.894;2022-07-15T07:28:39;101151.66;;;27.89;62.80
57859;BME280;49153;45.568;11.894;2022-07-15T07:31:09;101144.94;;;27.98;61.82
57859;BME280;49153;45.568;11.894;2022-07-15T07:33:44;101154.53;;;28.07;61.81
57859;BME280;49153;45.568;11.894;2022-07-15T07:36:11;101141.56;;;28.09;61.69
57859;BME280;49153;45.568;11.894;2022-07-15T07:38:39;101150.75;;;28.28;62.05
57859;BME280;49153;45.568;11.894;2022-07-15T07:41:29;101148.97;;;28.47;62.32
57859;BME280;49153;45.568;11.894;2022-07-15T07:43:58;101139.97;;;28.53;61.56
57859;BME280;49153;45.568;11.894;2022-07-15T07:46:24;101143.88;;;28.64;61.35
57859;BME280;49153;45.568;11.894;2022-07-15T07:49:20;101145.09;;;28.74;60.73
57859;BME280;49153;45.568;11.894;2022-07-15T07:51:47;101136.75;;;28.76;61.14
57859;BME280;49153;45.568;11.894;2022-07-15T07:54:12;101134.22;;;28.81;60.96
57859;BME280;49153;45.568;11.894;2022-07-15T07:56:38;101135.59;;;28.90;61.68
57859;BME280;49153;45.568;11.894;2022-07-15T07:59:03;101130.69;;;29.05;60.72
57859;BME280;49153;45.568;11.894;2022-07-15T08:01:29;101127.47;;;29.15;59.56
57859;BME280;49153;45.568;11.894;2022-07-15T08:03:57;101131.81;;;29.22;60.16
57859;BME280;49153;45.568;11.894;2022-07-15T08:06:32;101107.34;;;29.22;60.10
57859;BME280;49153;45.568;11.894;2022-07-15T08:09:18;101124.94;;;29.45;59.36
57859;BME280;49153;45.568;11.894;2022-07-15T08:11:47;101125.53;;;29.47;59.47
57859;BME280;49153;45.568;11.894;2022-07-15T08:14:21;101124.53;;;29.66;58.66
57859;BME280;49153;45.568;11.894;2022-07-15T08:16:54;101111.84;;;29.78;58.45
57859;BME280;49153;45.568;11.894;2022-07-15T08:19:21;101122.50;;;29.79;57.43
57859;BME280;49153;45.568;11.894;2022-07-15T08:21:46;101115.31;;;29.85;58.84
57859;BME280;49153;45.568;11.894;2022-07-15T08:24:13;101134.16;;;30.05;58.38
57859;BME280;49153;45.568;11.894;2022-07-15T08:26:39;101131.75;;;30.15;57.96
57859;BME280;49153;45.568;11.894;2022-07-15T08:29:04;101117.75;;;30.11;57.55
57859;BME280;49153;45.568;11.894;2022-07-15T08:31:43;101129.16;;;30.20;55.47
57859;BME280;49153;45.568;11.894;2022-07-15T08:34:08;101119.25;;;30.26;56.74
57859;BME280;49153;45.568;11.894;2022-07-15T08:36:35;101120.38;;;30.36;56.25
57859;BME280;49153;45.568;11.894;2022-07-15T08:39:02;101125.50;;;30.44;55.62
57859;BME280;49153;45.568;11.894;2022-07-15T08:41:34;101130.06;;;30.50;56.01
57859;BME280;49153;45.568;11.894;2022-07-15T08:44:04;101115.84;;;30.48;55.92
57859;BME280;49153;45.568;11.894;2022-07-15T08:46:32;101118.16;;;30.63;55.71
57859;BME280;49153;45.568;11.894;2022-07-15T08:49:11;101121.13;;;30.73;56.13
57859;BME280;49153;45.568;11.894;2022-07-15T08:51:42;101123.28;;;30.83;54.40
57859;BME280;49153;45.568;11.894;2022-07-15T08:54:08;101110.28;;;30.85;53.56
57859;BME280;49153;45.568;11.894;2022-07-15T08:56:34;101118.13;;;30.93;53.38
57859;BME280;49153;45.568;11.894;2022-07-15T08:59:01;101120.06;;;31.04;54.07
57859;BME280;49153;45.568;11.894;2022-07-15T09:01:31;101116.41;;;31.10;53.33
57859;BME280;49153;45.568;11.894;2022-07-15T09:03:58;101117.84;;;31.13;53.83
57859;BME280;49153;45.568;11.894;2022-07-15T09:06:50;101121.97;;;31.15;52.76
57859;BME280;49153;45.568;11.894;2022-07-15T09:09:30;101118.91;;;31.23;53.18
57859;BME280;49153;45.568;11.894;2022-07-15T09:14:24;101115.50;;;31.39;52.61
57859;BME280;49153;45.568;11.894;2022-07-15T09:17:04;101108.50;;;31.43;52.33
57859;BME280;49153;45.568;11.894;2022-07-15T09:19:57;101118.72;;;31.60;51.65
57859;BME280;49153;45.568;11.894;2022-07-15T09:22:24;101116.00;;;31.71;50.42
57859;BME280;49153;45.568;11.894;2022-07-15T09:25:11;101105.28;;;31.81;48.74
57859;BME280;49153;45.568;11.894;2022-07-15T09:27:42;101113.34;;;31.88;48.80
57859;BME280;49153;45.568;11.894;2022-07-15T09:30:28;101108.94;;;31.99;49.86
57859;BME280;49153;45.568;11.894;2022-07-15T09:33:19;101110.00;;;31.98;49.67
57859;BME280;49153;45.568;11.894;2022-07-15T09:49:06;101119.84;;;32.50;46.34
57859;BME280;49153;45.568;11.894;2022-07-15T09:51:42;101100.31;;;32.58;46.05
57859;BME280;49153;45.568;11.894;2022-07-15T09:54:09;101107.44;;;32.59;45.26
57859;BME280;49153;45.568;11.894;2022-07-15T09:56:37;101109.44;;;32.64;44.74
57859;BME280;49153;45.568;11.894;2022-07-15T09:59:03;101105.50;;;32.72;45.35
57859;BME280;49153;45.568;11.894;2022-07-15T10:01:29;101110.50;;;32.91;44.71
57859;BME280;49153;45.568;11.894;2022-07-15T10:03:56;101109.50;;;32.97;43.73
57859;BME280;49153;45.568;11.894;2022-07-15T10:06:25;101106.03;;;33.02;43.54
57859;BME280;49153;45.568;11.894;2022-07-15T10:08:52;101108.09;;;33.11;43.64
57859;BME280;49153;45.568;11.894;2022-07-15T10:11:19;101111.34;;;33.08;42.16
57859;BME280;49153;45.568;11.894;2022-07-15T10:16:45;101102.91;;;33.27;42.84
57859;BME280;49153;45.568;11.894;2022-07-15T10:28:12;101100.06;;;33.38;42.52
57859;BME280;49153;45.568;11.894;2022-07-15T10:30:39;101105.69;;;33.48;43.55
57859;BME280;49153;45.568;11.894;2022-07-15T10:33:06;101111.59;;;33.57;42.92
57859;BME280;49153;45.568;11.894;2022-07-15T10:35:41;101095.22;;;33.62;41.31
57859;BME280;49153;45.568;11.894;2022-07-15T10:38:29;101103.38;;;33.57;41.84
57859;BME280;49153;45.568;11.894;2022-07-15T10:41:10;101097.66;;;33.42;42.69
57859;BME280;49153;45.568;11.894;2022-07-15T10:43:53;101101.63;;;33.51;42.38
57859;BME280;49153;45.568;11.894;2022-07-15T10:54:01;101086.50;;;34.04;41.82
57859;BME280;49153;45.568;11.894;2022-07-15T10:56:37;101083.34;;;33.95;40.33
57859;BME280;49153;45.568;11.894;2022-07-15T10:59:09;101083.63;;;33.93;41.83
57859;BME280;49153;45.568;11.894;2022-07-15T11:01:42;101082.56;;;33.95;41.06
57859;BME280;49153;45.568;11.894;2022-07-15T11:04:16;101078.22;;;33.99;40.47
57859;BME280;49153;45.568;11.894;2022-07-15T11:09:56;101074.78;;;34.30;41.12
57859;BME280;49153;45.568;11.894;2022-07-15T11:17:52;101063.59;;;34.63;40.75
57859;BME280;49153;45.568;11.894;2022-07-15T11:20:30;101070.59;;;34.76;40.86
57859;BME280;49153;45.568;11.894;2022-07-15T11:22:58;101058.84;;;34.81;40.16
57859;BME280;49153;45.568;11.894;2022-07-15T11:27:59;101062.59;;;35.06;40.40
57859;BME280;49153;45.568;11.894;2022-07-15T11:30:40;101053.31;;;35.12;40.47
57859;BME280;49153;45.568;11.894;2022-07-15T11:33:12;101064.41;;;35.28;40.13
57859;BME280;49153;45.568;11.894;2022-07-15T11:35:53;101063.59;;;35.27;39.33
57859;BME280;49153;45.568;11.894;2022-07-15T11:38:24;101065.22;;;35.23;39.59
57859;BME280;49153;45.568;11.894;2022-07-15T11:41:00;101060.53;;;35.19;39.79
57859;BME280;49153;45.568;11.894;2022-07-15T11:43:45;101056.47;;;35.26;40.29
57859;BME280;49153;45.568;11.894;2022-07-15T11:46:31;101059.47;;;35.25;39.87
57859;BME280;49153;45.568;11.894;2022-07-15T11:48:58;101058.78;;;35.07;40.13
57859;BME280;49153;45.568;11.894;2022-07-15T11:51:29;101052.78;;;35.10;40.51
57859;BME280;49153;45.568;11.894;2022-07-15T11:53:56;101059.38;;;35.14;41.34
57859;BME280;49153;45.568;11.894;2022-07-15T11:56:22;101060.94;;;35.37;41.12
57859;BME280;49153;45.568;11.894;2022-07-15T11:58:55;101060.75;;;35.54;40.57
57859;BME280;49153;45.568;11.894;2022-07-15T12:01:23;101066.03;;;35.66;41.04
57859;BME280;49153;45.568;11.894;2022-07-15T12:03:51;101066.81;;;35.61;40.23
57859;BME280;49153;45.568;11.894;2022-07-15T12:06:19;101066.50;;;35.52;40.04
57859;BME280;49153;45.568;11.894;2022-07-15T12:11:19;101065.25;;;35.75;40.29
57859;BME280;49153;45.568;11.894;2022-07-15T12:13:54;101060.13;;;35.89;40.29
57859;BME280;49153;45.568;11.894;2022-07-15T12:19:08;101063.75;;;35.47;39.64
57859;BME280;49153;45.568;11.894;2022-07-15T12:21:36;101056.88;;;35.50;39.79
57859;BME280;49153;45.568;11.894;2022-07-15T12:26:34;101051.84;;;35.79;38.37
57859;BME280;49153;45.568;11.894;2022-07-15T12:29:02;101056.50;;;35.73;37.94
57859;BME280;49153;45.568;11.894;2022-07-15T12:31:30;101053.44;;;35.75;38.05
57859;BME280;49153;45.568;11.894;2022-07-15T12:33:56;101044.06;;;35.66;37.69
57859;BME280;49153;45.568;11.894;2022-07-15T12:36:24;101041.91;;;35.68;37.74
57859;BME280;49153;45.568;11.894;2022-07-15T12:39:05;101042.75;;;35.73;39.57
57859;BME280;49153;45.568;11.894;2022-07-15T12:41:31;101039.50;;;35.86;38.15
57859;BME280;49153;45.568;11.894;2022-07-15T12:43:59;101037.09;;;36.00;38.39
57859;BME280;49153;45.568;11.894;2022-07-15T12:46:50;101045.13;;;36.17;37.17
57859;BME280;49153;45.568;11.894;2022-07-15T12:54:38;101034.81;;;35.82;35.79
57859;BME280;49153;45.568;11.894;2022-07-15T12:57:04;101035.38;;;35.84;35.42
57859;BME280;49153;45.568;11.894;2022-07-15T12:59:29;101037.59;;;35.92;36.57
57859;BME280;49153;45.568;11.894;2022-07-15T13:02:02;101030.53;;;36.11;36.59
57859;BME280;49153;45.568;11.894;2022-07-15T13:04:28;101027.53;;;36.23;36.28
57859;BME280;49153;45.568;11.894;2022-07-15T13:06:53;101020.13;;;36.23;34.97
57859;BME280;49153;45.568;11.894;2022-07-15T13:09:19;101022.81;;;36.13;35.09
57859;BME280;49153;45.568;11.894;2022-07-15T13:11:44;101033.81;;;36.13;35.23
57859;BME280;49153;45.568;11.894;2022-07-15T13:14:10;101018.72;;;36.11;34.50
57859;BME280;49153;45.568;11.894;2022-07-15T13:16:35;101024.78;;;36.18;34.35
57859;BME280;49153;45.568;11.894;2022-07-15T13:19:00;101026.19;;;36.20;34.33
57859;BME280;49153;45.568;11.894;2022-07-15T13:21:26;101014.63;;;36.23;33.93
57859;BME280;49153;45.568;11.894;2022-07-15T13:23:51;101010.53;;;36.26;34.31
57859;BME280;49153;45.568;11.894;2022-07-15T13:26:17;101006.94;;;36.25;34.73
57859;BME280;49153;45.568;11.894;2022-07-15T13:28:42;101010.22;;;36.22;33.86
57859;BME280;49153;45.568;11.894;2022-07-15T13:31:07;101015.19;;;36.25;34.03
57859;BME280;49153;45.568;11.894;2022-07-15T13:33:33;101010.78;;;36.19;32.12
57859;BME280;49153;45.568;11.894;2022-07-15T13:35:58;101020.13;;;36.18;32.51
57859;BME280;49153;45.568;11.894;2022-07-15T13:38:24;101019.84;;;36.25;32.02
57859;BME280;49153;45.568;11.894;2022-07-15T13:40:50;101017.66;;;36.22;32.38
57859;BME280;49153;45.568;11.894;2022-07-15T13:43:15;101021.44;;;36.06;30.93
57859;BME280;49153;45.568;11.894;2022-07-15T13:45:41;101019.44;;;35.86;30.87
57859;BME280;49153;45.568;11.894;2022-07-15T13:48:06;101027.13;;;35.74;31.67
57859;BME280;49153;45.568;11.894;2022-07-15T13:50:32;101025.75;;;35.86;32.83
57859;BME280;49153;45.568;11.894;2022-07-15T13:53:16;101021.16;;;36.02;32.72
57859;BME280;49153;45.568;11.894;2022-07-15T13:55:41;101009.91;;;36.09;32.21
57859;BME280;49153;45.568;11.894;2022-07-15T13:58:08;101016.19;;;35.99;32.37
57859;BME280;49153;45.568;11.894;2022-07-15T14:00:35;101015.38;;;35.98;32.23
57859;BME280;49153;45.568;11.894;2022-07-15T14:03:04;101018.97;;;36.04;32.47
57859;BME280;49153;45.568;11.894;2022-07-15T14:05:29;101018.13;;;36.04;31.62